Time;durP1;ratioP1;P1;durP2;ratioP2;P2;SDS_P1;SDS_P2;PMS_P1;PMS_P2;Temp;Humidity;BMP_temperature;BMP_pressure;BME280_temperature;BME280_humidity;BME280_pressure;Samples;Min_cycle;Max_cycle;Signal;HPM_P1;HPM_P2
2021/09/22 00:02:15;;;;;;;5.80;5.00;;;14.80;99.90;;;;;;6126971;23;20414;-85
2021/09/22 00:04:43;;;;;;;5.87;5.37;;;14.70;99.90;;;;;;6122300;23;20464;-85
2021/09/22 00:07:10;;;;;;;8.00;6.30;;;14.90;99.90;;;;;;6112814;23;20553;-86
2021/09/22 00:09:36;;;;;;;6.60;5.53;;;14.80;99.90;;;;;;6122078;23;20443;-85
2021/09/22 00:12:04;;;;;;;8.63;6.00;;;14.90;99.90;;;;;;6123072;23;21224;-86
2021/09/22 00:14:31;;;;;;;9.70;7.30;;;14.70;99.90;;;;;;6121515;23;20524;-87
2021/09/22 00:16:58;;;;;;;7.20;6.10;;;14.50;99.90;;;;;;6152910;23;20424;-86
2021/09/22 00:19:25;;;;;;;8.90;6.60;;;14.60;99.90;;;;;;6136458;23;20418;-86
2021/09/22 00:21:52;;;;;;;6.87;6.27;;;14.50;99.90;;;;;;6124907;23;20488;-85
2021/09/22 00:24:18;;;;;;;10.30;7.47;;;14.40;99.90;;;;;;6123435;23;20414;-85
2021/09/22 00:26:45;;;;;;;9.87;8.87;;;14.40;99.90;;;;;;6124706;23;20442;-86
2021/09/22 00:29:13;;;;;;;8.60;6.50;;;14.40;99.90;;;;;;6122898;23;20418;-84
2021/09/22 00:31:40;;;;;;;8.70;6.70;;;14.30;99.90;;;;;;6118715;23;20601;-86
2021/09/22 00:34:08;;;;;;;6.67;5.93;;;14.50;99.90;;;;;;6123465;23;20680;-86
2021/09/22 00:36:35;;;;;;;7.77;6.23;;;14.40;99.90;;;;;;6128575;23;20457;-85
2021/09/22 00:39:02;;;;;;;9.13;6.60;;;14.50;99.90;;;;;;6158715;23;20438;-87
2021/09/22 00:41:28;;;;;;;7.83;6.17;;;14.50;99.90;;;;;;6160581;23;20488;-87
2021/09/22 00:43:55;;;;;;;8.00;6.40;;;14.50;99.90;;;;;;6145091;23;20394;-86
2021/09/22 00:46:23;;;;;;;7.67;6.40;;;14.50;99.90;;;;;;6146374;23;20450;-86
2021/09/22 00:48:50;;;;;;;7.10;6.03;;;14.30;99.90;;;;;;6142677;23;20452;-87
2021/09/22 00:51:17;;;;;;;8.27;6.73;;;14.40;99.90;;;;;;6134517;23;20422;-87
2021/09/22 00:53:44;;;;;;;6.77;6.00;;;14.40;99.90;;;;;;6145196;23;20425;-87
2021/09/22 00:56:11;;;;;;;7.17;6.03;;;14.40;99.90;;;;;;6122202;23;20465;-85
2021/09/22 00:58:38;;;;;;;6.90;6.10;;;14.20;99.90;;;;;;6126237;23;21392;-85
2021/09/22 01:01:04;;;;;;;6.53;5.60;;;14.20;99.90;;;;;;6124954;23;20437;-84
2021/09/22 01:03:32;;;;;;;7.40;6.33;;;13.90;99.90;;;;;;6119051;23;20420;-85
2021/09/22 01:06:00;;;;;;;7.23;6.53;;;14.00;99.90;;;;;;6124186;23;20414;-87
2021/09/22 01:08:31;;;;;;;8.00;7.00;;;14.10;99.90;;;;;;6125908;23;20523;-85
2021/09/22 01:11:00;;;;;;;9.30;6.40;;;14.10;99.90;;;;;;6128214;23;20828;-87
2021/09/22 01:13:27;;;;;;;7.77;6.13;;;14.00;99.90;;;;;;6151778;23;20413;-84
2021/09/22 01:15:54;;;;;;;7.20;6.47;;;14.00;99.90;;;;;;6152279;23;20446;-87
2021/09/22 01:18:23;;;;;;;7.50;5.60;;;14.00;99.90;;;;;;6126346;23;20433;-85
2021/09/22 01:20:56;;;;;;;7.20;5.77;;;13.90;99.90;;;;;;6123699;23;20414;-86
2021/09/22 01:23:25;;;;;;;6.57;5.43;;;13.90;99.90;;;;;;6124899;23;20817;-86
2021/09/22 01:25:53;;;;;;;7.60;6.57;;;14.00;99.90;;;;;;6120916;23;20425;-84
2021/09/22 01:28:24;;;;;;;7.30;6.20;;;13.90;99.90;;;;;;6122139;23;20477;-83
2021/09/22 01:30:51;;;;;;;7.67;6.87;;;13.80;99.90;;;;;;6147588;23;20515;-84
2021/09/22 01:33:22;;;;;;;7.03;6.33;;;13.80;99.90;;;;;;6147313;23;20414;-84
2021/09/22 01:35:49;;;;;;;7.43;6.23;;;13.80;99.90;;;;;;6148013;23;20442;-85
2021/09/22 01:38:27;;;;;;;7.07;6.37;;;13.60;99.90;;;;;;6121311;23;20434;-85
2021/09/22 01:40:55;;;;;;;8.77;6.40;;;13.70;99.90;;;;;;6142693;23;20404;-86
2021/09/22 01:43:23;;;;;;;8.83;6.10;;;13.80;99.90;;;;;;6124168;23;20429;-85
2021/09/22 01:45:50;;;;;;;7.17;6.50;;;13.90;99.90;;;;;;6122874;23;20450;-86
2021/09/22 01:48:17;;;;;;;9.70;6.50;;;13.90;99.90;;;;;;6148448;23;20541;-85
2021/09/22 01:50:45;;;;;;;7.40;6.70;;;13.80;99.90;;;;;;6148564;23;20421;-85
2021/09/22 01:53:12;;;;;;;7.13;6.43;;;13.70;99.90;;;;;;6123932;23;20833;-83
2021/09/22 01:55:41;;;;;;;6.50;5.90;;;13.70;99.90;;;;;;6155895;23;21302;-85
2021/09/22 01:58:18;;;;;;;7.10;6.40;;;13.70;99.90;;;;;;6131014;23;20508;-86
2021/09/22 02:00:50;;;;;;;6.50;5.90;;;13.80;99.90;;;;;;6151806;23;20723;-83
2021/09/22 02:03:19;;;;;;;8.20;6.10;;;13.70;99.90;;;;;;6147227;23;20418;-82
2021/09/22 02:05:46;;;;;;;6.83;6.07;;;13.60;99.90;;;;;;6144183;23;20406;-83
2021/09/22 02:08:13;;;;;;;6.33;5.73;;;13.70;99.90;;;;;;6154600;23;20874;-85
2021/09/22 02:10:41;;;;;;;11.50;6.63;;;13.60;99.90;;;;;;6146007;23;20503;-85
2021/09/22 02:13:09;;;;;;;6.90;6.30;;;13.80;99.90;;;;;;6150014;23;20405;-85
2021/09/22 02:15:39;;;;;;;7.50;6.70;;;13.50;99.90;;;;;;6174180;23;20465;-87
2021/09/22 02:18:08;;;;;;;6.37;5.77;;;13.50;99.90;;;;;;6163958;23;20504;-85
2021/09/22 02:20:39;;;;;;;7.87;6.70;;;13.50;99.90;;;;;;6127378;23;20433;-85
2021/09/22 02:23:05;;;;;;;7.37;6.57;;;13.40;99.90;;;;;;6152101;23;20477;-85
2021/09/22 02:25:32;;;;;;;7.30;5.60;;;13.30;99.90;;;;;;6128445;23;21088;-85
2021/09/22 02:28:01;;;;;;;6.97;6.20;;;13.40;99.90;;;;;;6154845;23;20434;-85
2021/09/22 02:30:30;;;;;;;8.67;6.53;;;13.40;99.90;;;;;;6128047;23;20402;-85
2021/09/22 02:32:59;;;;;;;7.83;6.20;;;13.20;99.90;;;;;;5994238;23;20997;-85
2021/09/22 02:35:28;;;;;;;8.90;7.73;;;13.30;99.90;;;;;;6146510;23;20433;-85
2021/09/22 02:37:57;;;;;;;8.20;6.37;;;13.20;99.90;;;;;;6148173;23;20422;-86
2021/09/22 02:40:25;;;;;;;6.50;5.90;;;13.40;99.90;;;;;;6170591;23;20407;-84
2021/09/22 02:42:52;;;;;;;6.70;6.10;;;13.40;99.90;;;;;;6137433;23;20920;-85
2021/09/22 02:45:19;;;;;;;6.37;5.77;;;13.30;99.90;;;;;;6141204;23;20622;-84
2021/09/22 02:47:45;;;;;;;7.67;6.67;;;13.40;99.90;;;;;;6159748;23;20426;-83
2021/09/22 02:50:17;;;;;;;8.30;7.37;;;13.40;99.90;;;;;;6138323;23;20481;-85
2021/09/22 02:52:45;;;;;;;7.10;6.40;;;13.40;99.90;;;;;;6124692;23;20701;-84
2021/09/22 02:55:16;;;;;;;6.50;4.93;;;13.30;99.90;;;;;;6123748;23;20477;-83
2021/09/22 02:57:43;;;;;;;8.00;6.67;;;13.30;99.90;;;;;;6149321;23;20434;-84
2021/09/22 03:00:11;;;;;;;6.97;6.30;;;13.40;99.90;;;;;;6147268;23;20410;-84
2021/09/22 03:02:41;;;;;;;7.27;5.50;;;13.40;99.90;;;;;;6148874;23;20440;-85
2021/09/22 03:05:09;;;;;;;7.30;6.60;;;13.40;99.90;;;;;;6121403;23;20418;-84
2021/09/22 03:07:36;;;;;;;8.27;6.20;;;13.30;99.90;;;;;;6115519;23;20508;-86
2021/09/22 03:10:05;;;;;;;7.07;6.37;;;13.30;99.90;;;;;;6120602;23;20468;-85
2021/09/22 03:12:32;;;;;;;6.17;5.57;;;13.40;99.90;;;;;;6146531;23;20792;-83
2021/09/22 03:15:01;;;;;;;6.70;6.10;;;13.40;99.90;;;;;;6113219;23;20414;-83
2021/09/22 03:17:27;;;;;;;8.30;6.60;;;13.50;99.90;;;;;;6146118;23;20450;-84
2021/09/22 03:20:03;;;;;;;7.80;7.10;;;13.50;99.90;;;;;;6146875;23;20416;-85
2021/09/22 03:22:30;;;;;;;7.50;6.60;;;13.50;99.90;;;;;;6121138;23;20473;-86
2021/09/22 03:24:57;;;;;;;6.67;5.77;;;13.50;99.90;;;;;;6113745;23;20446;-81
2021/09/22 03:27:27;;;;;;;8.30;6.40;;;13.30;99.90;;;;;;6120214;23;20433;-83
2021/09/22 03:29:54;;;;;;;11.57;6.00;;;13.40;99.90;;;;;;6145803;23;20475;-87
2021/09/22 03:32:21;;;;;;;8.87;6.50;;;13.50;99.90;;;;;;6138759;23;20418;-86
2021/09/22 03:34:48;;;;;;;7.47;6.30;;;13.30;99.90;;;;;;6123711;23;20470;-85
2021/09/22 03:37:15;;;;;;;6.63;5.83;;;13.50;99.90;;;;;;6121062;23;20452;-85
2021/09/22 03:39:42;;;;;;;8.53;6.50;;;13.50;99.90;;;;;;6116316;23;20414;-85
2021/09/22 03:42:09;;;;;;;7.30;6.33;;;13.40;99.90;;;;;;6144297;23;20410;-84
2021/09/22 03:44:35;;;;;;;8.13;6.57;;;13.30;99.90;;;;;;6146203;23;20413;-83
2021/09/22 03:47:02;;;;;;;8.03;6.13;;;13.30;99.90;;;;;;6121464;23;20429;-84
2021/09/22 03:49:29;;;;;;;11.23;6.87;;;13.30;99.90;;;;;;6117995;23;20410;-85
2021/09/22 03:51:56;;;;;;;14.30;7.30;;;13.30;99.90;;;;;;6148254;23;20460;-85
2021/09/22 03:54:23;;;;;;;9.77;7.60;;;13.20;99.90;;;;;;6148635;23;20406;-86
2021/09/22 03:56:49;;;;;;;12.77;8.53;;;13.00;99.90;;;;;;6124497;23;20751;-85
2021/09/22 03:59:16;;;;;;;18.50;8.90;;;13.00;99.90;;;;;;6145542;23;20412;-88
2021/09/22 04:01:43;;;;;;;18.73;9.47;;;12.90;99.90;;;;;;6148995;23;20425;-85
2021/09/22 04:04:11;;;;;;;16.47;9.20;;;13.00;99.90;;;;;;6119690;23;20414;-86
2021/09/22 04:06:38;;;;;;;16.70;8.53;;;12.90;99.90;;;;;;6143927;23;20410;-84
2021/09/22 04:09:05;;;;;;;19.87;9.10;;;12.80;99.90;;;;;;6118537;23;20448;-84
2021/09/22 04:11:32;;;;;;;17.03;8.07;;;12.60;99.90;;;;;;6147802;23;20795;-82
2021/09/22 04:13:58;;;;;;;15.07;9.70;;;12.40;99.90;;;;;;6132189;23;20781;-84
2021/09/22 04:16:25;;;;;;;14.53;8.50;;;12.40;99.90;;;;;;6119411;23;20446;-84
2021/09/22 04:18:52;;;;;;;11.70;8.67;;;12.30;99.90;;;;;;6119632;23;20464;-83
2021/09/22 04:21:19;;;;;;;13.50;6.80;;;12.40;99.90;;;;;;6120675;23;20406;-85
2021/09/22 04:23:45;;;;;;;11.13;6.73;;;12.50;99.90;;;;;;6116708;23;20410;-83
2021/09/22 04:26:12;;;;;;;9.10;6.63;;;12.60;99.90;;;;;;6118533;23;20832;-84
2021/09/22 04:28:38;;;;;;;9.37;6.23;;;12.60;99.90;;;;;;6133281;23;20433;-86
2021/09/22 04:31:06;;;;;;;10.40;6.77;;;12.60;99.90;;;;;;6141697;23;20418;-85
2021/09/22 04:33:33;;;;;;;7.73;5.70;;;12.50;99.90;;;;;;6144424;23;20397;-85
2021/09/22 04:35:59;;;;;;;8.87;6.60;;;12.40;99.90;;;;;;6148550;23;20493;-85
2021/09/22 04:38:27;;;;;;;8.20;6.27;;;12.30;99.90;;;;;;6145101;23;20433;-84
2021/09/22 04:40:57;;;;;;;7.63;6.30;;;12.20;99.90;;;;;;6125059;23;20969;-86
2021/09/22 04:43:25;;;;;;;10.13;7.53;;;12.10;99.90;;;;;;6151876;23;20474;-86
2021/09/22 04:45:51;;;;;;;7.43;6.73;;;12.10;99.90;;;;;;6130549;23;20637;-85
2021/09/22 04:48:18;;;;;;;7.90;7.10;;;12.20;99.90;;;;;;6158694;23;20425;-85
2021/09/22 04:50:45;;;;;;;8.37;7.00;;;12.10;99.90;;;;;;6152415;23;20421;-85
2021/09/22 04:53:12;;;;;;;12.83;7.20;;;12.00;99.90;;;;;;6128025;23;20446;-86
2021/09/22 04:55:38;;;;;;;12.00;7.27;;;12.10;99.90;;;;;;6157308;23;20418;-87
2021/09/22 04:58:06;;;;;;;19.30;8.17;;;12.10;99.90;;;;;;6151043;23;20426;-87
2021/09/22 05:00:34;;;;;;;12.03;7.60;;;12.20;99.90;;;;;;6123832;23;20453;-86
2021/09/22 05:03:02;;;;;;;16.90;7.43;;;12.30;99.90;;;;;;6124656;23;20416;-88
2021/09/22 05:05:35;;;;;;;11.80;7.90;;;12.20;99.90;;;;;;6120420;23;20429;-89
2021/09/22 05:08:02;;;;;;;10.30;7.57;;;12.10;99.90;;;;;;6124675;23;21367;-84
2021/09/22 05:10:29;;;;;;;10.20;7.30;;;12.10;99.90;;;;;;6125040;23;20508;-85
2021/09/22 05:12:57;;;;;;;11.57;6.77;;;12.20;99.90;;;;;;6127099;23;20473;-87
2021/09/22 05:15:24;;;;;;;12.30;8.00;;;12.20;99.90;;;;;;6124336;23;21008;-85
2021/09/22 05:17:51;;;;;;;8.10;7.10;;;12.20;99.90;;;;;;6154197;23;20521;-85
2021/09/22 05:20:18;;;;;;;14.60;8.87;;;12.20;99.90;;;;;;6129376;23;20424;-85
2021/09/22 05:22:45;;;;;;;15.40;8.97;;;12.00;99.90;;;;;;6123760;23;20417;-84
2021/09/22 05:25:12;;;;;;;13.83;7.77;;;11.90;99.90;;;;;;6126778;23;20410;-83
2021/09/22 05:27:38;;;;;;;9.53;6.63;;;11.80;99.90;;;;;;6123386;23;20758;-84
2021/09/22 05:30:06;;;;;;;8.73;6.93;;;11.90;99.90;;;;;;6118201;23;20431;-87
2021/09/22 05:32:33;;;;;;;14.00;7.47;;;12.10;99.90;;;;;;6148524;23;20513;-85
2021/09/22 05:35:00;;;;;;;9.23;6.90;;;12.20;99.90;;;;;;6124610;23;20464;-86
2021/09/22 05:37:29;;;;;;;11.30;7.17;;;12.10;99.90;;;;;;6146402;23;20453;-88
2021/09/22 05:39:56;;;;;;;9.63;6.53;;;12.10;99.90;;;;;;6149303;23;20421;-86
2021/09/22 05:42:23;;;;;;;9.87;7.47;;;12.10;99.90;;;;;;6125255;23;21017;-85
2021/09/22 05:44:50;;;;;;;9.07;7.27;;;12.20;99.90;;;;;;6126772;23;20790;-85
2021/09/22 05:47:17;;;;;;;9.30;7.20;;;12.20;99.90;;;;;;6122747;23;20438;-85
2021/09/22 05:49:44;;;;;;;8.27;7.37;;;12.20;99.90;;;;;;6121971;23;20413;-85
2021/09/22 05:52:11;;;;;;;9.70;7.10;;;12.10;99.90;;;;;;6153006;23;20425;-86
2021/09/22 05:54:38;;;;;;;8.27;6.43;;;12.20;99.90;;;;;;6124747;23;20807;-84
2021/09/22 05:57:04;;;;;;;7.77;6.30;;;12.30;99.90;;;;;;6149810;23;20445;-84
2021/09/22 05:59:31;;;;;;;8.33;7.53;;;12.30;99.90;;;;;;6123590;23;20410;-85
2021/09/22 06:02:02;;;;;;;10.20;7.90;;;12.40;99.90;;;;;;6127465;23;20626;-87
2021/09/22 06:04:29;;;;;;;8.20;6.70;;;12.40;99.90;;;;;;6149334;23;20840;-85
2021/09/22 06:06:56;;;;;;;9.30;6.10;;;12.40;99.90;;;;;;6125137;23;20780;-87
2021/09/22 06:09:26;;;;;;;10.07;7.10;;;12.40;99.90;;;;;;6131129;23;20406;-86
2021/09/22 06:12:25;;;;;;;11.63;9.40;;;12.70;99.90;;;;;;6053379;23;20385;-86
2021/09/22 06:14:52;;;;;;;12.47;7.93;;;12.70;99.90;;;;;;6060795;23;20420;-86
2021/09/22 06:17:19;;;;;;;7.93;6.57;;;12.70;99.90;;;;;;6098763;23;21022;-86
2021/09/22 06:19:46;;;;;;;6.93;6.10;;;12.60;99.90;;;;;;6149231;23;20429;-83
2021/09/22 06:22:13;;;;;;;8.17;7.30;;;12.80;99.90;;;;;;6146079;23;20513;-85
2021/09/22 06:25:24;;;;;;;;;;;;;;;;;;;;;
2021/09/22 06:27:54;;;;;;;7.30;6.40;;;12.70;99.90;;;;;;6148289;23;20441;-85
2021/09/22 06:30:21;;;;;;;10.40;6.63;;;12.90;99.90;;;;;;6151790;23;20437;-87
2021/09/22 06:32:48;;;;;;;8.27;7.47;;;13.00;99.90;;;;;;6151275;23;20441;-86
2021/09/22 06:35:23;;;;;;;8.80;7.83;;;13.10;99.90;;;;;;6125568;23;21016;-85
2021/09/22 06:37:53;;;;;;;11.33;7.70;;;13.10;99.90;;;;;;6129062;23;20522;-85
2021/09/22 06:40:22;;;;;;;13.20;7.40;;;13.20;99.90;;;;;;6124119;23;20421;-86
2021/09/22 06:42:49;;;;;;;11.70;7.00;;;13.10;99.90;;;;;;6152877;23;20444;-85
2021/09/22 06:45:18;;;;;;;9.13;7.30;;;13.30;99.90;;;;;;6147726;23;20939;-87
2021/09/22 06:47:46;;;;;;;10.07;7.43;;;13.50;99.90;;;;;;6154924;23;20430;-86
2021/09/22 06:50:13;;;;;;;13.30;9.00;;;13.40;99.90;;;;;;6130448;23;20441;-88
2021/09/22 06:52:40;;;;;;;13.80;7.97;;;13.50;99.90;;;;;;6148130;23;20926;-85
2021/09/22 06:55:11;;;;;;;14.43;10.07;;;13.70;99.90;;;;;;6154269;23;20745;-87
2021/09/22 06:57:39;;;;;;;12.57;8.70;;;13.80;99.90;;;;;;6153014;23;20538;-84
2021/09/22 07:00:09;;;;;;;12.53;7.83;;;13.70;99.90;;;;;;6150464;23;20919;-86
2021/09/22 07:02:37;;;;;;;11.50;10.20;;;13.60;99.90;;;;;;6120517;23;20913;-89
2021/09/22 07:05:10;;;;;;;11.43;7.70;;;13.70;99.90;;;;;;6152159;23;20485;-86
2021/09/22 07:07:38;;;;;;;9.77;8.30;;;13.70;99.90;;;;;;6126013;23;20505;-85
2021/09/22 07:10:06;;;;;;;10.60;7.47;;;13.60;99.90;;;;;;6121698;23;20457;-86
2021/09/22 07:12:33;;;;;;;9.80;8.20;;;14.10;99.90;;;;;;6135746;23;20398;-88
2021/09/22 07:15:00;;;;;;;8.90;7.60;;;14.40;99.90;;;;;;6143819;23;20428;-87
2021/09/22 07:17:32;;;;;;;11.23;8.50;;;14.50;99.90;;;;;;6150751;23;20460;-87
2021/09/22 07:20:14;;;;;;;8.33;6.97;;;15.20;99.00;;;;;;6189720;23;20456;-89
2021/09/22 07:22:41;;;;;;;9.87;7.83;;;15.70;97.20;;;;;;6188874;23;20404;-86
2021/09/22 07:25:09;;;;;;;11.23;8.07;;;16.10;96.20;;;;;;6186169;23;20511;-89
2021/09/22 07:27:36;;;;;;;18.57;12.87;;;16.30;95.60;;;;;;6175499;23;20453;-87
2021/09/22 07:30:06;;;;;;;11.07;8.20;;;16.70;95.00;;;;;;6170028;23;20405;-86
2021/09/22 07:32:33;;;;;;;8.43;6.90;;;16.70;94.50;;;;;;6191873;23;20412;-87
2021/09/22 07:35:00;;;;;;;8.00;7.20;;;16.90;94.50;;;;;;6177667;23;20849;-89
2021/09/22 07:37:28;;;;;;;11.37;7.77;;;17.10;93.80;;;;;;6190211;23;20444;-88
2021/09/22 07:39:55;;;;;;;10.33;8.30;;;17.10;93.60;;;;;;6179281;23;20447;-89
2021/09/22 07:42:22;;;;;;;14.23;7.60;;;17.20;93.60;;;;;;6169372;23;20501;-86
2021/09/22 07:44:53;;;;;;;14.77;8.07;;;17.00;93.70;;;;;;6198247;23;20433;-86
2021/09/22 07:47:21;;;;;;;9.23;7.80;;;17.40;93.30;;;;;;6201093;23;20479;-90
2021/09/22 07:49:48;;;;;;;8.80;7.70;;;17.70;92.50;;;;;;6186364;23;20401;-88
2021/09/22 07:52:16;;;;;;;9.03;7.90;;;17.60;92.30;;;;;;6179889;23;20416;-89
2021/09/22 07:54:43;;;;;;;11.50;8.17;;;17.70;92.40;;;;;;6189084;22;21159;-87
2021/09/22 07:57:10;;;;;;;13.40;8.87;;;17.30;92.00;;;;;;6184526;23;20457;-87
2021/09/22 07:59:38;;;;;;;12.67;9.50;;;16.80;93.00;;;;;;6175350;23;20722;-86
2021/09/22 08:02:04;;;;;;;13.07;9.30;;;16.40;93.80;;;;;;6172639;23;20419;-88
2021/09/22 08:04:32;;;;;;;13.03;10.53;;;16.30;94.50;;;;;;6181776;23;20436;-85
2021/09/22 08:06:59;;;;;;;12.83;9.43;;;16.10;94.90;;;;;;6157058;23;20627;-88
2021/09/22 08:09:27;;;;;;;11.60;8.87;;;16.00;94.90;;;;;;6179298;23;20557;-87
2021/09/22 08:11:54;;;;;;;10.20;8.90;;;15.80;95.40;;;;;;6179709;23;20431;-87
2021/09/22 08:14:33;;;;;;;9.90;8.00;;;15.60;95.80;;;;;;6174058;23;20416;-87
2021/09/22 08:17:00;;;;;;;12.87;9.33;;;15.50;96.40;;;;;;6176789;23;20465;-84
2021/09/22 08:19:27;;;;;;;10.00;9.00;;;15.50;96.50;;;;;;6176961;23;20404;-86
2021/09/22 08:21:57;;;;;;;10.57;8.87;;;15.40;96.50;;;;;;6176583;23;20619;-88
2021/09/22 08:24:33;;;;;;;10.97;9.50;;;15.40;96.90;;;;;;6180727;23;20955;-90
2021/09/22 08:27:00;;;;;;;10.90;9.80;;;15.50;96.70;;;;;;6182398;23;20455;-87
2021/09/22 08:29:27;;;;;;;11.57;9.20;;;15.70;96.60;;;;;;6195875;23;20864;-88
2021/09/22 08:31:54;;;;;;;14.80;8.97;;;15.90;96.30;;;;;;6195007;23;20424;-87
2021/09/22 08:34:22;;;;;;;15.47;9.70;;;15.90;96.00;;;;;;6169954;23;20407;-83
2021/09/22 08:36:49;;;;;;;24.13;13.83;;;15.90;96.00;;;;;;6179615;23;20474;-88
2021/09/22 08:39:17;;;;;;;33.93;16.20;;;15.90;96.10;;;;;;6166982;23;20412;-86
2021/09/22 08:41:46;;;;;;;18.40;12.70;;;15.90;96.10;;;;;;6177397;23;20409;-86
2021/09/22 08:44:14;;;;;;;16.07;11.40;;;15.70;96.10;;;;;;6163747;23;20926;-86
2021/09/22 08:46:44;;;;;;;11.47;10.10;;;15.40;96.90;;;;;;6177940;23;20536;-86
2021/09/22 08:49:12;;;;;;;13.30;10.17;;;15.70;97.10;;;;;;6168009;23;20887;-84
2021/09/22 08:51:39;;;;;;;11.43;10.13;;;15.70;96.60;;;;;;6176858;23;20419;-88
2021/09/22 08:54:06;;;;;;;14.13;9.70;;;15.90;96.60;;;;;;6168194;23;20436;-86
2021/09/22 08:56:35;;;;;;;14.63;10.67;;;16.10;96.20;;;;;;6179620;23;20412;-87
2021/09/22 08:59:06;;;;;;;16.90;10.77;;;16.50;95.60;;;;;;6168552;23;21213;-85
2021/09/22 09:01:33;;;;;;;14.70;11.90;;;16.60;95.00;;;;;;6176418;23;20404;-85
2021/09/22 09:04:32;;;;;;;15.97;11.97;;;16.70;94.90;;;;;;6178027;23;20409;-85
2021/09/22 09:06:59;;;;;;;23.63;14.53;;;16.70;94.90;;;;;;6095596;23;20413;-85
2021/09/22 09:09:37;;;;;;;17.10;11.97;;;16.80;94.80;;;;;;6174071;23;20401;-82
2021/09/22 09:12:23;;;;;;;17.27;13.47;;;16.90;94.70;;;;;;6173424;23;21436;-86
2021/09/22 09:18:31;;;;;;;12.43;11.20;;;16.70;94.30;;;;;;6072429;23;20451;-84
2021/09/22 09:21:10;;;;;;;12.37;10.80;;;16.60;95.00;;;;;;6082879;23;20412;-85
2021/09/22 09:24:40;;;;;;;15.80;10.77;;;16.80;95.00;;;;;;6097679;23;20621;-85
2021/09/22 09:29:59;;;;;;;13.27;11.23;;;17.30;94.00;;;;;;6138532;23;20532;-83
2021/09/22 09:32:32;;;;;;;12.10;10.50;;;17.30;93.80;;;;;;6151235;23;20430;-84
2021/09/22 09:35:04;;;;;;;13.50;11.00;;;17.20;94.30;;;;;;6143307;23;20413;-85
2021/09/22 09:37:45;;;;;;;11.93;10.07;;;17.30;94.30;;;;;;6144837;23;20457;-85
2021/09/22 09:40:25;;;;;;;14.97;10.70;;;17.30;94.20;;;;;;6117651;23;20428;-83
2021/09/22 09:43:00;;;;;;;14.20;10.20;;;17.60;94.00;;;;;;6126897;23;20410;-82
2021/09/22 09:45:52;;;;;;;14.27;10.00;;;18.70;92.20;;;;;;6123270;23;20430;-86
2021/09/22 09:48:31;;;;;;;11.03;9.80;;;19.20;90.30;;;;;;6117102;23;20765;-84
2021/09/22 09:51:02;;;;;;;12.17;9.57;;;19.70;89.80;;;;;;6119161;23;20415;-83
2021/09/22 09:53:36;;;;;;;11.50;9.67;;;21.00;85.40;;;;;;6115873;23;20930;-83
2021/09/22 09:56:23;;;;;;;10.80;8.60;;;22.00;80.70;;;;;;6114907;23;20398;-83
2021/09/22 09:58:57;;;;;;;10.90;9.80;;;22.80;76.80;;;;;;6116783;23;21076;-83
2021/09/22 10:01:37;;;;;;;10.27;9.20;;;23.30;75.50;;;;;;6109868;23;21149;-87
2021/09/22 10:04:09;;;;;;;10.00;9.00;;;23.80;71.60;;;;;;6113195;23;20899;-86
2021/09/22 10:06:39;;;;;;;10.70;8.50;;;23.30;71.40;;;;;;6114511;23;20505;-84
2021/09/22 10:09:12;;;;;;;11.20;9.50;;;22.80;72.30;;;;;;6116833;23;20474;-85
2021/09/22 10:11:44;;;;;;;11.93;9.20;;;22.70;73.20;;;;;;6110194;23;20415;-83
2021/09/22 10:14:13;;;;;;;11.50;10.30;;;22.90;73.10;;;;;;6097559;23;20441;-82
2021/09/22 10:16:41;;;;;;;11.60;10.20;;;23.10;70.80;;;;;;6113928;23;20415;-85
2021/09/22 10:19:09;;;;;;;11.50;10.30;;;23.30;69.70;;;;;;6101193;23;20447;-85
2021/09/22 10:21:38;;;;;;;11.40;9.63;;;23.00;68.40;;;;;;6113801;23;20969;-85
2021/09/22 10:24:10;;;;;;;11.57;10.37;;;22.70;69.30;;;;;;6103029;23;20411;-83
2021/09/22 10:26:38;;;;;;;11.00;9.90;;;22.10;71.20;;;;;;6110970;23;20418;-86
2021/09/22 10:29:25;;;;;;;12.90;11.00;;;21.40;74.10;;;;;;6098717;23;21097;-83
2021/09/22 10:31:54;;;;;;;12.30;10.70;;;21.00;75.50;;;;;;6132227;23;20982;-84
2021/09/22 10:34:33;;;;;;;12.33;11.03;;;21.70;74.80;;;;;;6129870;23;20426;-85
2021/09/22 10:37:21;;;;;;;13.73;11.80;;;22.20;71.10;;;;;;6134931;23;20411;-85
2021/09/22 10:39:48;;;;;;;13.23;11.27;;;22.40;68.60;;;;;;6130405;23;20409;-85
2021/09/22 10:42:33;;;;;;;14.17;10.67;;;23.30;65.20;;;;;;6121738;23;20400;-84
2021/09/22 10:45:21;;;;;;;12.20;10.90;;;23.60;64.40;;;;;;6116594;23;20430;-82
2021/09/22 10:47:49;;;;;;;13.33;10.53;;;23.70;61.90;;;;;;6115080;23;20437;-84
2021/09/22 10:50:40;;;;;;;10.80;9.70;;;23.60;63.30;;;;;;6111125;23;20474;-82
2021/09/22 10:53:32;;;;;;;12.90;10.67;;;23.50;64.60;;;;;;6115474;23;20415;-88
2021/09/22 10:56:07;;;;;;;10.07;9.13;;;23.60;65.00;;;;;;6115787;23;20518;-85
2021/09/22 10:58:43;;;;;;;10.07;9.10;;;24.10;64.00;;;;;;6113760;23;20442;-83
2021/09/22 11:01:09;;;;;;;10.27;9.27;;;24.30;63.40;;;;;;6122883;23;20406;-86
2021/09/22 11:03:46;;;;;;;11.23;10.00;;;24.00;62.60;;;;;;6133032;23;20404;-84
2021/09/22 11:06:44;;;;;;;11.17;9.97;;;23.50;63.60;;;;;;6125510;23;20411;-87
2021/09/22 11:09:26;;;;;;;11.60;9.93;;;23.20;63.70;;;;;;6119375;23;20434;-84
2021/09/22 11:11:59;;;;;;;11.57;9.47;;;23.20;64.50;;;;;;6119314;23;20383;-83
2021/09/22 11:14:32;;;;;;;10.07;9.13;;;23.40;63.70;;;;;;6116142;23;20406;-85
2021/09/22 11:17:04;;;;;;;10.10;9.10;;;23.40;64.00;;;;;;6113421;23;20422;-85
2021/09/22 11:19:32;;;;;;;13.90;10.43;;;23.20;64.00;;;;;;6112889;23;20442;-83
2021/09/22 11:22:00;;;;;;;10.63;9.63;;;23.00;64.20;;;;;;6112468;23;20406;-85
2021/09/22 11:24:31;;;;;;;11.07;9.97;;;22.80;64.30;;;;;;6106182;23;21141;-82
2021/09/22 11:27:07;;;;;;;11.13;10.03;;;22.60;66.00;;;;;;6114848;23;21431;-86
2021/09/22 11:29:50;;;;;;;11.27;9.93;;;23.00;64.60;;;;;;6113305;23;20426;-84
2021/09/22 11:32:35;;;;;;;11.70;9.80;;;23.00;64.30;;;;;;6106308;23;20429;-84
2021/09/22 11:35:18;;;;;;;10.73;9.57;;;23.50;63.10;;;;;;6113779;23;20425;-84
2021/09/22 11:37:53;;;;;;;11.27;10.17;;;23.30;63.00;;;;;;6113770;23;20461;-84
2021/09/22 11:40:31;;;;;;;10.63;9.60;;;23.70;62.70;;;;;;6105915;23;21130;-85
2021/09/22 11:43:08;;;;;;;11.70;10.03;;;24.00;61.30;;;;;;6107524;23;20395;-84
2021/09/22 11:45:45;;;;;;;13.10;11.20;;;23.90;61.80;;;;;;6117139;23;20411;-83
2021/09/22 11:48:15;;;;;;;13.30;10.00;;;24.10;61.30;;;;;;6105153;23;20445;-85
2021/09/22 11:50:47;;;;;;;14.83;10.20;;;24.40;60.40;;;;;;6112728;23;20423;-82
2021/09/22 11:53:17;;;;;;;10.33;9.23;;;24.50;59.40;;;;;;6105646;23;20419;-82
2021/09/22 11:55:48;;;;;;;11.33;10.17;;;24.30;59.90;;;;;;6112538;23;20729;-83
2021/09/22 12:02:35;;;;;;;12.27;11.00;;;23.60;62.20;;;;;;6077193;23;20407;-83
2021/09/22 12:05:02;;;;;;;12.20;10.10;;;24.00;60.40;;;;;;6094324;23;20423;-85
2021/09/22 12:07:37;;;;;;;12.73;10.90;;;24.00;60.90;;;;;;6079397;23;20614;-85
2021/09/22 12:10:06;;;;;;;10.00;8.87;;;24.20;60.20;;;;;;6098988;23;20417;-84
2021/09/22 12:12:41;;;;;;;14.67;10.70;;;24.00;60.10;;;;;;6147333;23;20411;-85
2021/09/22 12:15:21;;;;;;;13.40;10.60;;;23.90;60.40;;;;;;6143595;23;20476;-85
2021/09/22 12:18:09;;;;;;;11.50;10.40;;;24.30;59.70;;;;;;6145159;23;21005;-87
2021/09/22 12:20:43;;;;;;;11.33;9.73;;;24.60;58.50;;;;;;6146944;23;20481;-85
2021/09/22 12:23:24;;;;;;;12.67;10.43;;;24.70;58.80;;;;;;6144891;23;20460;-85
2021/09/22 12:25:51;;;;;;;12.90;10.07;;;24.70;58.80;;;;;;6147254;23;20429;-86
2021/09/22 12:28:24;;;;;;;11.37;10.17;;;24.60;58.40;;;;;;6147149;23;20438;-85
2021/09/22 12:30:58;;;;;;;12.70;10.47;;;24.60;58.70;;;;;;6144319;23;20413;-84
2021/09/22 12:33:29;;;;;;;12.97;11.57;;;24.40;58.60;;;;;;6150414;23;20418;-85
2021/09/22 12:36:15;;;;;;;12.10;11.00;;;24.40;58.50;;;;;;6154010;23;20421;-85
2021/09/22 12:38:51;;;;;;;12.87;10.33;;;24.20;59.20;;;;;;6145781;23;20449;-87
2021/09/22 12:41:20;;;;;;;14.33;10.47;;;24.50;58.50;;;;;;6142014;23;20437;-84
2021/09/22 12:43:56;;;;;;;12.10;10.87;;;24.40;58.60;;;;;;6146555;23;20484;-83
2021/09/22 12:46:23;;;;;;;12.40;10.10;;;24.20;58.80;;;;;;6145148;23;20568;-86
2021/09/22 12:48:49;;;;;;;13.07;10.53;;;24.10;59.30;;;;;;6143753;23;21020;-86
2021/09/22 12:51:21;;;;;;;13.07;11.70;;;24.10;58.90;;;;;;6150942;23;20689;-84
2021/09/22 12:53:49;;;;;;;15.83;11.30;;;23.90;58.70;;;;;;6143886;23;20425;-88
2021/09/22 12:56:20;;;;;;;14.33;11.60;;;24.10;58.60;;;;;;6141360;23;20759;-85
2021/09/22 12:58:48;;;;;;;13.07;11.80;;;24.10;58.50;;;;;;6138690;23;20457;-85
2021/09/22 13:01:15;;;;;;;12.03;10.73;;;24.20;58.40;;;;;;6143358;23;20941;-83
2021/09/22 13:03:48;;;;;;;13.40;10.07;;;24.10;58.20;;;;;;6138707;23;20417;-84
2021/09/22 13:06:22;;;;;;;10.57;9.43;;;24.10;58.50;;;;;;6146565;23;20452;-86
2021/09/22 13:08:55;;;;;;;12.50;10.53;;;23.90;58.20;;;;;;6139730;23;20553;-86